This is the latest recevied weather packets stored in our database for station/object HS3UAA-1. If no packets are shown the sender has not sent any weather packets the latest 10 day(s).
| Time | Temp. | Humidity | Pressure | Rain* | Wind** | Luminosity | Snow |
|---|---|---|---|---|---|---|---|
| 1788523309 | 35.56° C | 34% | 995 hPa | - | - | 0 W/m² | - |
| 1788522987 | 35.56° C | 34% | 995 hPa | - | - | 0 W/m² | - |
| 1788522665 | 35.56° C | 34% | 995 hPa | - | - | 0 W/m² | - |
| 1788522342 | 35° C | 35% | 995 hPa | - | - | 0 W/m² | - |
| 1788522020 | 35° C | 35% | 995 hPa | - | - | 0 W/m² | - |
| 1788521698 | 35° C | 34% | 995 hPa | - | - | 0 W/m² | - |
| 1788521376 | 35° C | 34% | 995 hPa | - | - | 0 W/m² | - |
| 1788521054 | 35° C | 34% | 995 hPa | - | - | 0 W/m² | - |
| 1788520732 | 34.44° C | 34% | 995 hPa | - | - | 0 W/m² | - |
| 1788520239 | 34.44° C | 34% | 995 hPa | - | - | 0 W/m² | - |
| 1788519917 | 33.89° C | 34% | 995 hPa | - | - | 0 W/m² | - |
| 1788519595 | 33.89° C | 34% | 995 hPa | - | - | 0 W/m² | - |
| 1788519273 | 32.78° C | 35% | 994 hPa | - | - | 0 W/m² | - |
| 1788518664 | 32.78° C | 34% | 994 hPa | - | - | 0 W/m² | - |
| 1788518342 | 31.67° C | 35% | 994 hPa | - | - | 0 W/m² | - |
| 1788518020 | 29.44° C | 38% | 994 hPa | - | - | 0 W/m² | - |
| 1788517697 | 28.89° C | 39% | 994 hPa | - | - | 0 W/m² | - |
| 1788517375 | 28.89° C | 40% | 994 hPa | - | - | 0 W/m² | - |
| 1788517053 | 28.89° C | 38% | 994 hPa | - | - | 0 W/m² | - |
| 1788516731 | 28.89° C | 40% | 994 hPa | - | - | 0 W/m² | - |
| 1788516409 | 28.89° C | 39% | 994 hPa | - | - | 0 W/m² | - |
| 1788516087 | 29.44° C | 39% | 994 hPa | - | - | 0 W/m² | - |
| 1788515765 | 29.44° C | 38% | 993 hPa | - | - | 0 W/m² | - |
| 1788515443 | 28.89° C | 39% | 993 hPa | - | - | 0 W/m² | - |
| 1788515121 | 28.89° C | 40% | 993 hPa | - | - | 0 W/m² | - |
* Rain since midnight (hover to see other rain measurements)
** Current wind speed in m/s (hover to see current wind gust speed)